Airfield :
LOGIN :

Register | Disclaimer

   EN    FR    IT 

 










Legend :    VFR   Marginal VFR   IFR   Intensive IFR   Very Intensive IFR
Visi :
Ceiling :
>= 8 km
>= 3000ft
5 to 8 km
1000 to 3000 ft
1500m to 5 km
500 to 1000 ft
800 to 1500m
200 to 500 ft
< 800m
< 200 ft
Symbols :   Thunderstorms  Fog  Heavy snow  Heavy precipitations  Wind > 20 kt
SIGMETs :     Misc.  Thunderstorms  Icing  Turbulence  Mountain Waves  Volcanic Ashes







- Airport Elevation : 215 ft
- IATA code : ABZ
- Download approach charts


EGPD - Aberdeen / Dyce

CURRENT METAR :
  • 200420Z AUTO 22016KT 9999 NCD 09/04 Q0998 NOSIG

EXPIRED METARs :
  • 200350Z AUTO 22019KT 9999 NCD 09/04 Q0998 NOSIG
  • 200320Z AUTO 22020KT 9999 NCD 09/04 Q0998 NOSIG
  • 200250Z AUTO 22021KT 9999 NCD 09/04 Q0998 NOSIG
  • 200220Z AUTO 23019G30KT 9999 NCD 09/03 Q0998
  • 200150Z AUTO 23017KT 9999 NCD 09/04 Q0998 NOSIG

TAF TAF EGPD
Valid from the 20 at 00:00 until the 21 at 00:00 UTC


192303Z 2000/2024 22022G32KT 9999 FEW025
BECMG 2009/2012 23012KT
BECMG 2021/2024 34005KT
PROB30
TEMPO 2022/2024 4000 RA BKN012
No reported NOTAMs for that airfield.
4 SIGMETs reported for the Scottish FIR (EGPX) :
 
Severe mountain waves
EGPX SIGMET 04 VALID 200500/200900 EGRR
EGPX SCOTTISH FIR SEV MTW FCST WI N5500 W00500 - N5614 W00330 - N5749 W00109 - N5500 E00000 - N5500 W00500 FL030/250 STNR NC=
Severe mountain waves
EGPX SIGMET 03 VALID 200500/200900 EGRR
EGPX SCOTTISH FIR SEV MTW FCST WI N5500 W00100 - N5500 W00500 - N5501 E00001 - N5500 E00001 - N5500 W00100 FL030/250 MOV N 10KT WKN=
Severe mountain waves
EGPX SIGMET 02 VALID 200100/200500 EGRR
EGPX SCOTTISH FIR SEV MTW FCST WI N5500 W00530 - N5622 W00419 - N5805 W00103 - N5500 E00020 - N5500 W00530 FL030/250 STNR NC=
Severe turbulence
EGPX SIGMET 01 VALID 200100/200500 EGRR
EGPX SCOTTISH FIR SEV TURB FCST SE OF LINE N5850 W01000 - N6039 E00000 SFC/FL060 STNR NC=



MET'MAP, your aeronautical weather chart ! - Copyright ORBIFLY December 2007 - Disclaimer

ORBIFLY MET'MAP TEAM :

Programming & Development : Alexandra Zaïnal
Concept & Development : Baudouin d'Aumeries
Co-Development & Prog : Marc-Olivier Méhu
Technical & hardware support : Manuel Goepfert

Contact : metmap@orbifly.com




SOURCES & CREDITS :

   NOAA